createdAt,value
2022-12-25T00:00:21.132Z,23.20
2022-12-25T00:03:09.619Z,24.50
2022-12-25T00:05:40.609Z,27.20
2022-12-25T00:08:10.670Z,32.80
2022-12-25T00:10:44.732Z,28.90
2022-12-25T00:13:13.425Z,27.70
2022-12-25T00:15:42.046Z,30.80
2022-12-25T00:18:10.204Z,32.00
2022-12-25T00:20:38.218Z,36.00
2022-12-25T00:23:06.228Z,34.90
2022-12-25T00:25:34.249Z,33.60
2022-12-25T00:28:02.213Z,24.00
2022-12-25T00:30:30.251Z,31.60
2022-12-25T00:32:58.266Z,23.40
2022-12-25T00:35:26.272Z,29.60
2022-12-25T00:37:54.256Z,25.10
2022-12-25T00:40:22.272Z,33.80
2022-12-25T00:42:50.613Z,34.00
2022-12-25T00:45:18.737Z,33.50
2022-12-25T00:47:46.823Z,32.10
2022-12-25T00:50:14.803Z,32.50
2022-12-25T00:52:42.803Z,29.30
2022-12-25T00:55:10.892Z,38.60
2022-12-25T00:57:38.913Z,31.30
2022-12-25T01:00:08.242Z,30.10
2022-12-25T01:02:36.406Z,35.40
2022-12-25T01:05:05.909Z,31.20
2022-12-25T01:07:34.023Z,38.00
2022-12-25T01:10:20.717Z,35.80
2022-12-25T01:12:50.364Z,35.60
2022-12-25T01:15:18.909Z,33.60
2022-12-25T01:17:46.968Z,31.40
2022-12-25T01:20:16.690Z,34.60
2022-12-25T01:22:45.646Z,31.80
2022-12-25T01:25:13.731Z,37.00
2022-12-25T01:27:42.160Z,38.00
2022-12-25T01:30:11.181Z,34.60
2022-12-25T01:32:39.214Z,28.60
2022-12-25T01:35:07.498Z,30.40
2022-12-25T01:37:35.510Z,34.70
2022-12-25T01:40:04.287Z,34.90
2022-12-25T01:42:32.317Z,33.60
2022-12-25T01:45:42.318Z,32.20
2022-12-25T01:48:16.343Z,32.10
2022-12-25T01:50:47.804Z,35.70
2022-12-25T01:53:16.025Z,35.50
2022-12-25T01:55:47.372Z,31.20
2022-12-25T01:58:16.752Z,34.20
2022-12-25T02:00:45.712Z,30.20
2022-12-25T02:03:14.455Z,26.40
2022-12-25T02:05:43.506Z,30.50
2022-12-25T02:08:14.652Z,31.50
2022-12-25T02:10:44.973Z,31.70
2022-12-25T02:13:15.895Z,32.20
2022-12-25T02:16:03.063Z,29.80
2022-12-25T02:18:31.096Z,31.90
2022-12-25T02:21:26.584Z,29.90
2022-12-25T02:24:31.120Z,40.50
2022-12-25T02:27:25.803Z,36.60
2022-12-25T02:30:01.292Z,32.70
2022-12-25T02:33:24.106Z,34.10
2022-12-25T02:35:56.395Z,27.10
2022-12-25T02:38:33.500Z,32.90
2022-12-25T02:41:08.708Z,31.10
2022-12-25T02:43:59.624Z,36.00
2022-12-25T02:46:50.395Z,37.20
2022-12-25T02:49:43.101Z,38.10
2022-12-25T02:52:38.845Z,33.10
2022-12-25T02:55:31.115Z,36.60
2022-12-25T02:58:23.194Z,34.70
2022-12-25T03:01:16.742Z,32.40
2022-12-25T03:04:08.910Z,38.40
2022-12-25T03:06:44.914Z,38.10
2022-12-25T03:09:43.231Z,34.40
2022-12-25T03:12:53.670Z,40.00
2022-12-25T03:15:40.895Z,40.00
2022-12-25T03:18:17.255Z,35.10
2022-12-25T03:21:04.308Z,31.90
2022-12-25T03:23:54.517Z,36.40
2022-12-25T03:26:41.204Z,39.90
2022-12-25T03:29:09.217Z,38.20
2022-12-25T03:32:18.996Z,31.40
2022-12-25T03:35:24.226Z,35.40
2022-12-25T03:38:22.065Z,36.90
2022-12-25T03:41:31.127Z,31.50
2022-12-25T03:44:36.411Z,33.20
2022-12-25T03:47:35.767Z,42.00
2022-12-25T03:50:48.784Z,36.10
2022-12-25T03:53:40.590Z,30.30
2022-12-25T03:56:28.213Z,33.60
2022-12-25T03:59:23.449Z,37.80
2022-12-25T04:02:11.012Z,42.50
2022-12-25T04:04:58.388Z,31.70
2022-12-25T04:07:45.235Z,31.40
2022-12-25T04:10:32.028Z,33.50
2022-12-25T04:13:18.777Z,31.50
2022-12-25T04:16:05.614Z,32.40
2022-12-25T04:18:52.395Z,26.70
2022-12-25T04:21:39.061Z,27.50
2022-12-25T04:24:26.154Z,30.60
2022-12-25T04:27:12.915Z,27.30
2022-12-25T04:29:59.655Z,27.30
2022-12-25T04:32:46.350Z,34.50
2022-12-25T04:35:33.316Z,30.50
2022-12-25T04:38:01.316Z,27.70
2022-12-25T04:40:29.334Z,25.80
2022-12-25T04:42:57.330Z,31.80
2022-12-25T04:45:25.336Z,29.10
2022-12-25T04:47:53.399Z,30.40
2022-12-25T04:50:21.457Z,27.20
2022-12-25T04:52:49.521Z,27.20
2022-12-25T04:55:17.670Z,36.30
2022-12-25T04:57:45.701Z,29.30
2022-12-25T05:00:13.990Z,28.60
2022-12-25T05:02:42.292Z,28.60
2022-12-25T05:05:10.567Z,30.70
2022-12-25T05:07:38.576Z,31.30
2022-12-25T05:10:07.672Z,27.20
2022-12-25T05:12:35.651Z,28.50
2022-12-25T05:15:03.939Z,20.80
2022-12-25T05:17:32.017Z,23.30
2022-12-25T05:20:00.204Z,29.80
2022-12-25T05:22:28.253Z,26.50
2022-12-25T05:24:56.357Z,23.30
2022-12-25T05:27:24.377Z,24.60
2022-12-25T05:29:52.370Z,25.90
2022-12-25T05:32:20.376Z,24.60
2022-12-25T05:34:48.357Z,28.90
2022-12-25T05:37:16.336Z,27.10
2022-12-25T05:39:44.333Z,27.30
2022-12-25T05:42:12.340Z,25.20
2022-12-25T05:44:40.335Z,26.60
2022-12-25T05:47:08.414Z,28.30
2022-12-25T05:49:36.440Z,32.30
2022-12-25T05:52:04.619Z,35.10
2022-12-25T05:54:32.670Z,30.00
2022-12-25T05:57:00.725Z,27.40
2022-12-25T05:59:33.190Z,29.50
2022-12-25T06:02:01.395Z,31.70
2022-12-25T06:04:29.691Z,30.10
2022-12-25T06:06:57.698Z,30.80
2022-12-25T06:09:25.746Z,30.70
2022-12-25T06:11:53.733Z,31.00
2022-12-25T06:14:21.768Z,27.30
2022-12-25T06:16:53.870Z,29.30
2022-12-25T06:19:22.266Z,34.90
2022-12-25T06:21:54.523Z,29.00
2022-12-25T06:24:23.829Z,30.30
2022-12-25T06:26:52.095Z,30.20
2022-12-25T06:29:20.371Z,32.90
2022-12-25T06:31:48.399Z,36.40
2022-12-25T06:34:16.725Z,34.80
2022-12-25T06:36:44.726Z,33.60
2022-12-25T06:39:12.746Z,37.20
2022-12-25T06:41:40.765Z,33.20
2022-12-25T06:44:09.037Z,36.80
2022-12-25T06:46:37.021Z,33.20
2022-12-25T06:49:05.160Z,18.00
2022-12-25T06:51:34.303Z,36.00
2022-12-25T06:54:06.112Z,34.30
2022-12-25T06:56:34.832Z,35.20
2022-12-25T06:59:05.756Z,32.20
2022-12-25T07:01:47.751Z,34.50
2022-12-25T07:04:27.910Z,34.80
2022-12-25T07:06:55.921Z,33.60
2022-12-25T07:09:23.981Z,31.00
2022-12-25T07:11:52.853Z,30.30
2022-12-25T07:14:24.460Z,29.60
2022-12-25T07:16:52.918Z,29.00
2022-12-25T07:19:21.055Z,29.30
2022-12-25T07:21:49.082Z,29.20
2022-12-25T07:24:21.181Z,18.80
2022-12-25T07:26:50.980Z,28.00
2022-12-25T07:29:19.891Z,48.60
2022-12-25T07:31:48.077Z,27.30
2022-12-25T07:34:19.958Z,44.40
2022-12-25T07:36:48.002Z,32.90
2022-12-25T07:39:17.053Z,33.20
2022-12-25T07:41:45.108Z,26.00
2022-12-25T07:44:16.396Z,36.10
2022-12-25T07:46:44.460Z,34.50
2022-12-25T07:49:12.707Z,34.30
2022-12-25T07:51:40.819Z,32.10
2022-12-25T07:54:08.910Z,40.00
2022-12-25T07:56:36.975Z,29.30
2022-12-25T07:59:04.998Z,36.10
2022-12-25T08:01:33.270Z,29.80
2022-12-25T08:04:02.713Z,37.30
2022-12-25T08:06:33.543Z,40.10
2022-12-25T08:09:13.206Z,30.20
2022-12-25T08:11:46.978Z,21.90
2022-12-25T08:14:15.297Z,32.90
2022-12-25T08:16:43.543Z,37.70
2022-12-25T08:19:11.881Z,40.30
2022-12-25T08:21:39.913Z,35.00
2022-12-25T08:24:08.005Z,28.20
2022-12-25T08:26:36.038Z,29.60
2022-12-25T08:29:04.057Z,26.50
2022-12-25T08:31:37.260Z,44.20
2022-12-25T08:34:07.715Z,31.70
2022-12-25T08:36:35.861Z,31.80
2022-12-25T08:39:05.711Z,28.60
2022-12-25T08:41:36.604Z,43.20
2022-12-25T08:44:05.643Z,26.50
2022-12-25T08:46:33.772Z,28.70
2022-12-25T08:49:01.796Z,32.30
2022-12-25T08:51:29.828Z,42.00
2022-12-25T08:54:01.411Z,34.00
2022-12-25T08:56:29.606Z,41.50
2022-12-25T08:58:57.719Z,70.10
2022-12-25T09:01:25.919Z,47.60
2022-12-25T09:03:54.112Z,45.60
2022-12-25T09:06:22.175Z,49.50
2022-12-25T09:08:50.369Z,36.60
2022-12-25T09:11:20.252Z,45.20
2022-12-25T09:13:48.961Z,31.40
2022-12-25T09:16:22.128Z,25.90
2022-12-25T09:18:50.999Z,30.60
2022-12-25T09:21:19.704Z,42.10
2022-12-25T09:23:47.735Z,50.20
2022-12-25T09:26:17.919Z,64.00
2022-12-25T09:28:51.341Z,33.60
2022-12-25T09:31:22.791Z,33.30
2022-12-25T09:33:51.997Z,29.20
2022-12-25T09:36:23.569Z,38.70
2022-12-25T09:38:52.993Z,38.10
2022-12-25T09:41:24.001Z,39.10
2022-12-25T09:43:59.816Z,33.20
2022-12-25T09:46:37.098Z,49.30
2022-12-25T09:49:28.481Z,40.90
2022-12-25T09:52:06.702Z,40.60
2022-12-25T09:54:56.679Z,32.90
2022-12-25T09:57:25.794Z,38.90
2022-12-25T09:59:56.944Z,34.80
2022-12-25T10:02:28.154Z,28.30
2022-12-25T10:05:12.244Z,31.40
2022-12-25T10:07:44.501Z,34.70
2022-12-25T10:10:35.613Z,30.50
2022-12-25T10:13:03.591Z,33.30
2022-12-25T10:15:59.556Z,37.00
2022-12-25T10:18:50.437Z,30.80
2022-12-25T10:21:19.902Z,38.80
2022-12-25T10:24:14.167Z,37.20
2022-12-25T10:26:43.111Z,37.90
2022-12-25T10:29:19.848Z,34.20
2022-12-25T10:31:52.022Z,39.10
2022-12-25T10:34:20.043Z,30.50
2022-12-25T10:36:48.453Z,34.40
2022-12-25T10:39:18.922Z,33.10
2022-12-25T10:42:08.767Z,30.90
2022-12-25T10:44:36.815Z,31.30
2022-12-25T10:47:05.610Z,32.40
2022-12-25T10:49:39.048Z,28.80
2022-12-25T10:52:21.609Z,28.10
2022-12-25T10:54:49.983Z,32.80
2022-12-25T10:57:21.979Z,27.00
2022-12-25T10:59:58.356Z,29.60
2022-12-25T11:02:40.812Z,35.80
2022-12-25T11:05:32.111Z,32.00
2022-12-25T11:08:02.469Z,31.20
2022-12-25T11:10:44.053Z,28.50
2022-12-25T11:13:24.486Z,29.90
2022-12-25T11:16:04.669Z,28.50
2022-12-25T11:18:43.936Z,28.80
2022-12-25T11:21:37.165Z,28.20
2022-12-25T11:24:17.956Z,27.00
2022-12-25T11:26:55.686Z,27.40
2022-12-25T11:29:38.054Z,25.20
2022-12-25T11:32:16.397Z,24.60
2022-12-25T11:34:47.393Z,28.40
2022-12-25T11:37:40.801Z,25.80
2022-12-25T11:40:26.572Z,33.60
2022-12-25T11:43:04.124Z,29.40
2022-12-25T11:45:39.564Z,31.30
2022-12-25T11:48:19.678Z,23.10
2022-12-25T11:50:55.863Z,30.50
2022-12-25T11:53:40.134Z,23.80
2022-12-25T11:56:12.225Z,24.30
2022-12-25T11:59:18.048Z,27.30
2022-12-25T12:01:51.226Z,16.30
2022-12-25T12:04:27.596Z,27.20
2022-12-25T12:07:08.944Z,30.40
2022-12-25T12:09:48.559Z,24.60
2022-12-25T12:12:46.793Z,31.70
2022-12-25T12:15:31.134Z,33.30
2022-12-25T12:18:21.359Z,23.80
2022-12-25T12:21:21.350Z,26.10
2022-12-25T12:23:55.619Z,22.60
2022-12-25T12:26:26.168Z,29.00
2022-12-25T12:28:58.123Z,31.30
2022-12-25T12:34:05.624Z,42.50
2022-12-25T12:36:36.608Z,33.80
2022-12-25T12:39:06.169Z,31.70
2022-12-25T12:41:46.474Z,24.70
2022-12-25T12:44:17.484Z,37.40
2022-12-25T12:46:54.630Z,29.60
2022-12-25T12:49:33.794Z,31.30
2022-12-25T12:52:25.530Z,29.10
2022-12-25T12:55:04.007Z,24.30
2022-12-25T12:57:39.355Z,23.70
2022-12-25T13:00:16.119Z,25.90
2022-12-25T13:03:05.405Z,25.60
2022-12-25T13:05:48.324Z,35.50
2022-12-25T13:08:43.532Z,30.60
2022-12-25T13:11:44.440Z,27.20
2022-12-25T13:14:17.535Z,24.10
2022-12-25T13:16:48.169Z,23.90
2022-12-25T13:19:22.018Z,27.60
2022-12-25T13:22:15.156Z,27.50
2022-12-25T13:24:43.141Z,31.70
2022-12-25T13:27:26.289Z,26.80
2022-12-25T13:29:54.394Z,32.60
2022-12-25T13:32:32.447Z,27.50
2022-12-25T13:35:01.050Z,27.90
2022-12-25T13:37:31.695Z,31.50
2022-12-25T13:40:03.837Z,28.50
2022-12-25T13:42:37.968Z,33.40
2022-12-25T13:45:13.459Z,30.30
2022-12-25T13:47:43.303Z,24.40
2022-12-25T13:50:25.458Z,35.90
2022-12-25T13:52:57.585Z,31.40
2022-12-25T13:55:30.647Z,33.80
2022-12-25T13:58:02.309Z,30.80
2022-12-25T14:00:45.221Z,32.10
2022-12-25T14:03:23.990Z,29.20
2022-12-25T14:06:15.362Z,24.70
2022-12-25T14:08:44.675Z,29.50
2022-12-25T14:11:15.995Z,27.30
2022-12-25T14:13:46.280Z,25.00
2022-12-25T14:16:19.566Z,26.20
2022-12-25T14:18:53.617Z,26.60
2022-12-25T14:21:28.065Z,22.50
2022-12-25T14:23:56.486Z,65.40
2022-12-25T14:26:34.178Z,72.80
2022-12-25T14:29:05.015Z,86.40
2022-12-25T14:31:33.896Z,72.10
2022-12-25T14:34:04.689Z,61.60
2022-12-25T14:36:34.002Z,58.50
2022-12-25T14:39:05.608Z,148.60
2022-12-25T14:41:41.297Z,128.20
2022-12-25T14:44:28.030Z,165.30
2022-12-25T14:47:13.412Z,157.60
2022-12-25T14:49:41.971Z,135.90
2022-12-25T14:52:37.894Z,127.40
2022-12-25T14:55:08.942Z,127.20
2022-12-25T14:57:41.208Z,109.50
2022-12-25T15:00:21.473Z,98.60
2022-12-25T15:02:51.651Z,113.60
2022-12-25T15:05:27.069Z,113.80
2022-12-25T15:08:13.227Z,103.90
2022-12-25T15:13:30.871Z,84.40
2022-12-25T15:16:12.356Z,89.40
2022-12-25T15:18:43.639Z,97.80
2022-12-25T15:21:28.773Z,83.70
2022-12-25T15:23:58.812Z,91.80
2022-12-25T15:26:28.695Z,102.20
2022-12-25T15:28:57.291Z,105.60
2022-12-25T15:31:28.148Z,105.50
2022-12-25T15:33:58.921Z,98.20
2022-12-25T15:36:28.052Z,90.50
2022-12-25T15:38:56.183Z,100.20
2022-12-25T15:41:49.493Z,89.80
2022-12-25T15:44:18.208Z,112.00
2022-12-25T15:46:46.789Z,109.10
2022-12-25T15:49:16.110Z,114.20
2022-12-25T15:51:44.936Z,99.40
2022-12-25T15:54:13.250Z,102.10
2022-12-25T15:56:54.218Z,85.10
2022-12-25T15:59:23.182Z,84.50
2022-12-25T16:01:56.784Z,87.80
2022-12-25T16:04:26.825Z,174.00
2022-12-25T16:06:58.572Z,152.80
2022-12-25T16:09:27.776Z,82.40
2022-12-25T16:11:55.790Z,86.80
2022-12-25T16:14:23.791Z,103.30
2022-12-25T16:16:51.781Z,106.50
2022-12-25T16:19:19.812Z,96.00
2022-12-25T16:21:47.920Z,112.20
2022-12-25T16:24:16.727Z,111.60
2022-12-25T16:26:44.771Z,119.30
2022-12-25T16:29:12.879Z,96.40
2022-12-25T16:31:41.564Z,100.40
2022-12-25T16:34:10.342Z,103.30
2022-12-25T16:36:38.421Z,104.20
2022-12-25T16:39:06.476Z,118.10
2022-12-25T16:41:34.682Z,168.50
2022-12-25T16:44:09.648Z,155.60
2022-12-25T16:46:39.695Z,140.20
2022-12-25T16:49:07.860Z,135.90
2022-12-25T16:51:35.876Z,122.50
2022-12-25T16:54:04.042Z,108.30
2022-12-25T16:56:32.571Z,116.70
2022-12-25T16:59:01.195Z,130.80
2022-12-25T17:01:29.875Z,122.60
2022-12-25T17:04:01.789Z,101.20
2022-12-25T17:09:00.350Z,93.90
2022-12-25T17:11:30.385Z,93.00
2022-12-25T17:14:04.515Z,74.50
2022-12-25T17:16:37.411Z,72.20
2022-12-25T17:19:19.527Z,80.40
2022-12-25T17:24:16.244Z,89.90
2022-12-25T17:26:44.916Z,83.70
2022-12-25T17:29:19.986Z,83.20
2022-12-25T17:31:50.884Z,93.40
2022-12-25T17:34:19.327Z,85.70
2022-12-25T17:36:47.806Z,81.20
2022-12-25T17:39:15.992Z,80.70
2022-12-25T17:41:43.996Z,76.10
2022-12-25T17:44:12.054Z,80.50
2022-12-25T17:46:40.202Z,69.40
2022-12-25T17:49:15.259Z,73.80
2022-12-25T17:51:43.591Z,70.80
2022-12-25T17:54:12.043Z,77.60
2022-12-25T17:56:40.233Z,69.10
2022-12-25T17:59:10.590Z,68.90
2022-12-25T18:01:40.188Z,74.10
2022-12-25T18:04:08.505Z,79.30
2022-12-25T18:06:37.401Z,67.80
2022-12-25T18:09:06.952Z,80.40
2022-12-25T18:11:39.819Z,103.20
2022-12-25T18:14:11.514Z,128.20
2022-12-25T18:16:42.270Z,119.70
2022-12-25T18:19:11.950Z,106.80
2022-12-25T18:21:40.125Z,106.40
2022-12-25T18:24:09.307Z,119.80
2022-12-25T18:26:37.440Z,155.50
2022-12-25T18:29:07.094Z,150.40
2022-12-25T18:31:36.153Z,129.90
2022-12-25T18:34:05.206Z,120.20
2022-12-25T18:36:33.363Z,106.70
2022-12-25T18:39:01.469Z,99.00
2022-12-25T18:41:30.426Z,99.00
2022-12-25T18:44:00.192Z,100.10
2022-12-25T18:46:28.665Z,102.80
2022-12-25T18:48:57.777Z,97.40
2022-12-25T18:51:29.931Z,104.60
2022-12-25T18:54:01.834Z,124.70
2022-12-25T18:56:29.845Z,115.10
2022-12-25T18:58:59.968Z,101.40
2022-12-25T19:01:28.228Z,89.80
2022-12-25T19:04:04.103Z,92.60
2022-12-25T19:06:35.187Z,94.00
2022-12-25T19:09:09.216Z,104.10
2022-12-25T19:11:45.868Z,105.30
2022-12-25T19:14:15.579Z,102.50
2022-12-25T19:16:44.604Z,101.60
2022-12-25T19:19:14.206Z,97.30
2022-12-25T19:21:42.234Z,119.50
2022-12-25T19:24:10.357Z,111.20
2022-12-25T19:26:40.756Z,97.90
2022-12-25T19:29:08.894Z,89.80
2022-12-25T19:31:38.374Z,90.30
2022-12-25T19:34:07.233Z,92.00
2022-12-25T19:36:35.711Z,91.60
2022-12-25T19:39:05.722Z,82.80
2022-12-25T19:41:34.851Z,88.80
2022-12-25T19:44:03.500Z,87.70
2022-12-25T19:46:34.680Z,99.70
2022-12-25T19:49:06.408Z,98.70
2022-12-25T19:54:06.031Z,98.20
2022-12-25T19:56:34.818Z,87.30
2022-12-25T19:59:03.158Z,86.70
2022-12-25T20:01:31.641Z,78.90
2022-12-25T20:04:00.359Z,82.60
2022-12-25T20:06:32.104Z,90.90
2022-12-25T20:09:07.264Z,87.40
2022-12-25T20:11:36.275Z,65.80
2022-12-25T20:14:06.158Z,69.00
2022-12-25T20:16:37.707Z,76.50
2022-12-25T20:19:06.879Z,72.00
2022-12-25T20:21:35.117Z,107.00
2022-12-25T20:24:03.680Z,193.60
2022-12-25T20:26:32.288Z,143.60
2022-12-25T20:29:00.456Z,119.40
2022-12-25T20:31:34.400Z,96.60
2022-12-25T20:34:11.406Z,88.40
2022-12-25T20:36:39.804Z,85.40
2022-12-25T20:39:10.158Z,67.70
2022-12-25T20:41:39.740Z,68.90
2022-12-25T20:44:10.309Z,56.20
2022-12-25T20:46:38.995Z,64.00
2022-12-25T20:49:07.111Z,52.80
2022-12-25T20:51:35.766Z,53.60
2022-12-25T20:54:09.425Z,48.60
2022-12-25T20:56:37.602Z,52.30
2022-12-25T20:59:05.734Z,51.30
2022-12-25T21:01:33.850Z,68.80
2022-12-25T21:04:02.168Z,64.90
2022-12-25T21:06:30.363Z,46.80
2022-12-25T21:08:58.416Z,40.40
2022-12-25T21:11:27.240Z,45.00
2022-12-25T21:13:55.339Z,47.70
2022-12-25T21:16:24.444Z,44.40
2022-12-25T21:18:53.980Z,44.40
2022-12-25T21:21:22.421Z,53.60
2022-12-25T21:23:51.082Z,51.00
2022-12-25T21:26:26.935Z,42.10
2022-12-25T21:28:57.633Z,42.10
2022-12-25T21:31:26.553Z,44.40
2022-12-25T21:33:56.055Z,39.60
2022-12-25T21:36:31.222Z,41.40
2022-12-25T21:39:02.276Z,38.70
2022-12-25T21:41:32.055Z,35.20
2022-12-25T21:44:01.139Z,33.30
2022-12-25T21:46:29.629Z,32.60
2022-12-25T21:48:58.838Z,26.40
2022-12-25T21:51:48.533Z,32.10
2022-12-25T21:54:17.808Z,34.80
2022-12-25T21:56:47.508Z,33.50
2022-12-25T21:59:21.364Z,34.50
2022-12-25T22:01:51.737Z,29.90
2022-12-25T22:04:22.275Z,31.30
2022-12-25T22:07:09.447Z,29.90
2022-12-25T22:09:37.891Z,23.90
2022-12-25T22:12:31.935Z,28.90
2022-12-25T22:15:06.790Z,27.10
2022-12-25T22:17:58.581Z,23.70
2022-12-25T22:20:30.780Z,26.90
2022-12-25T22:22:58.857Z,26.20
2022-12-25T22:25:26.988Z,24.60
2022-12-25T22:27:55.650Z,29.90
2022-12-25T22:30:28.368Z,24.60
2022-12-25T22:32:57.032Z,25.80
2022-12-25T22:35:25.227Z,23.80
2022-12-25T22:37:54.219Z,26.60
2022-12-25T22:40:22.489Z,24.50
2022-12-25T22:42:54.868Z,20.90
2022-12-25T22:45:23.967Z,20.20
2022-12-25T22:47:52.036Z,27.80
2022-12-25T22:50:20.187Z,19.20
2022-12-25T22:52:48.194Z,19.90
2022-12-25T22:55:19.205Z,20.60
2022-12-25T22:57:47.436Z,18.70
2022-12-25T23:00:15.592Z,22.80
2022-12-25T23:02:43.740Z,15.50
2022-12-25T23:05:12.131Z,15.40
2022-12-25T23:07:40.695Z,15.10
2022-12-25T23:10:10.695Z,16.50
2022-12-25T23:12:57.217Z,16.80
2022-12-25T23:15:26.111Z,18.00
2022-12-25T23:18:12.810Z,20.00
2022-12-25T23:20:59.684Z,13.50
2022-12-25T23:23:46.344Z,16.40
2022-12-25T23:26:14.953Z,12.90
2022-12-25T23:29:02.567Z,17.60
2022-12-25T23:31:37.148Z,11.40
2022-12-25T23:34:06.345Z,10.80
2022-12-25T23:36:34.489Z,15.90
2022-12-25T23:39:09.534Z,11.10
2022-12-25T23:41:40.944Z,12.40
2022-12-25T23:44:11.143Z,14.90
2022-12-25T23:46:40.396Z,10.20
2022-12-25T23:49:09.857Z,14.80
2022-12-25T23:51:43.337Z,14.00
2022-12-25T23:54:14.537Z,11.40
2022-12-25T23:56:43.400Z,9.80
2022-12-25T23:59:12.778Z,11.40
